Time;durP1;ratioP1;P1;durP2;ratioP2;P2;SDS_P1;SDS_P2;PMS_P1;PMS_P2;Temp;Humidity;BMP_temperature;BMP_pressure;BME280_temperature;BME280_humidity;BME280_pressure;Samples;Min_cycle;Max_cycle;Signal;HPM_P1;HPM_P2
2023/10/27 00:01:36;;;;;;;99.47;19.57;;;;;;;;;;5115001;27;20442;-69
2023/10/27 00:04:03;;;;;;;63.07;17.60;;;;;;;;;;5125640;27;20540;-69
2023/10/27 00:06:32;;;;;;;41.47;15.47;;;;;;;;;;5121437;27;20541;-66
2023/10/27 00:08:59;;;;;;;71.07;17.47;;;;;;;;;;5112146;28;20461;-66
2023/10/27 00:11:26;;;;;;;50.43;16.00;;;;;;;;;;5123138;27;20473;-66
2023/10/27 00:13:52;;;;;;;49.80;16.30;;;;;;;;;;5123410;27;20478;-66
2023/10/27 00:16:19;;;;;;;59.53;16.53;;;;;;;;;;5113341;27;20450;-66
2023/10/27 00:18:45;;;;;;;40.37;17.07;;;;;;;;;;5109492;27;20490;-66
2023/10/27 00:21:11;;;;;;;89.77;17.50;;;;;;;;;;5123685;27;20568;-66
2023/10/27 00:23:39;;;;;;;57.93;15.37;;;;;;;;;;5114367;27;20494;-66
2023/10/27 00:26:06;;;;;;;56.23;14.80;;;;;;;;;;5110921;27;20509;-66
2023/10/27 00:28:32;;;;;;;58.50;14.30;;;;;;;;;;5115621;27;20456;-66
2023/10/27 00:30:59;;;;;;;75.13;15.80;;;;;;;;;;5126212;27;20521;-69
2023/10/27 00:33:25;;;;;;;34.00;14.67;;;;;;;;;;5117903;27;20505;-69
2023/10/27 00:35:52;;;;;;;57.40;15.17;;;;;;;;;;5115997;27;20504;-68
2023/10/27 00:38:18;;;;;;;46.93;13.90;;;;;;;;;;5114946;27;20446;-69
2023/10/27 00:40:46;;;;;;;46.13;15.43;;;;;;;;;;5115227;27;20560;-68
2023/10/27 00:43:14;;;;;;;52.57;14.30;;;;;;;;;;5111817;27;20504;-69
2023/10/27 00:45:41;;;;;;;37.63;13.63;;;;;;;;;;5113467;28;20451;-69
2023/10/27 00:48:07;;;;;;;64.20;14.40;;;;;;;;;;5122529;27;20538;-69
2023/10/27 00:50:33;;;;;;;75.50;15.20;;;;;;;;;;5118288;27;20478;-69
2023/10/27 00:53:00;;;;;;;41.10;12.80;;;;;;;;;;5118240;27;20485;-68
2023/10/27 00:55:27;;;;;;;44.03;13.23;;;;;;;;;;5113323;27;20489;-69
2023/10/27 00:57:55;;;;;;;54.90;15.00;;;;;;;;;;5116286;27;20473;-69
2023/10/27 01:00:21;;;;;;;45.43;18.10;;;;;;;;;;5119288;27;20520;-68
2023/10/27 01:02:48;;;;;;;38.27;14.27;;;;;;;;;;5124670;27;20457;-69
2023/10/27 01:05:15;;;;;;;57.67;14.20;;;;;;;;;;5120479;27;20474;-69
2023/10/27 01:07:41;;;;;;;54.83;14.83;;;;;;;;;;5127140;27;20441;-69
2023/10/27 01:10:08;;;;;;;56.07;15.30;;;;;;;;;;5114503;27;20488;-69
2023/10/27 01:12:35;;;;;;;60.43;14.00;;;;;;;;;;5123077;27;20477;-69
2023/10/27 01:15:02;;;;;;;41.13;13.23;;;;;;;;;;5119975;27;20486;-69
2023/10/27 01:17:29;;;;;;;42.03;15.30;;;;;;;;;;5123676;27;20541;-69
2023/10/27 01:19:55;;;;;;;34.53;15.00;;;;;;;;;;5123965;27;20956;-69
2023/10/27 01:22:21;;;;;;;34.13;14.27;;;;;;;;;;5111994;27;20494;-69
2023/10/27 01:24:50;;;;;;;47.27;15.17;;;;;;;;;;5127223;27;20516;-69
2023/10/27 01:27:17;;;;;;;35.97;14.83;;;;;;;;;;5126705;27;20475;-69
2023/10/27 01:29:43;;;;;;;46.67;15.17;;;;;;;;;;5120675;27;21200;-69
2023/10/27 01:32:10;;;;;;;40.40;15.83;;;;;;;;;;5123745;27;20477;-69
2023/10/27 01:34:36;;;;;;;35.10;14.77;;;;;;;;;;5118450;27;20489;-69
2023/10/27 01:37:02;;;;;;;44.63;14.70;;;;;;;;;;5113354;27;20584;-69
2023/10/27 01:39:29;;;;;;;41.70;15.13;;;;;;;;;;5122861;27;20543;-69
2023/10/27 01:41:57;;;;;;;50.90;16.07;;;;;;;;;;5118594;27;20478;-69
2023/10/27 01:44:23;;;;;;;58.97;15.80;;;;;;;;;;5123681;27;20483;-69
2023/10/27 01:46:49;;;;;;;44.47;15.40;;;;;;;;;;5131696;27;20532;-69
2023/10/27 01:49:16;;;;;;;45.10;16.37;;;;;;;;;;5110493;27;20457;-69
2023/10/27 01:51:42;;;;;;;41.83;16.67;;;;;;;;;;5115625;28;20503;-69
2023/10/27 01:54:09;;;;;;;51.03;17.47;;;;;;;;;;5104502;27;21045;-69
2023/10/27 01:56:35;;;;;;;44.77;16.13;;;;;;;;;;5110591;27;20961;-69
2023/10/27 01:59:03;;;;;;;51.43;17.30;;;;;;;;;;5109939;28;20484;-68
2023/10/27 02:01:29;;;;;;;73.07;18.67;;;;;;;;;;5117772;27;20482;-68
2023/10/27 02:03:56;;;;;;;69.50;17.90;;;;;;;;;;5124255;27;21045;-68
2023/10/27 02:06:23;;;;;;;39.37;16.00;;;;;;;;;;5115007;27;20469;-68
2023/10/27 02:08:49;;;;;;;41.90;16.90;;;;;;;;;;5113169;27;20489;-68
2023/10/27 02:11:16;;;;;;;46.60;15.90;;;;;;;;;;5114499;27;20471;-68
2023/10/27 02:13:42;;;;;;;38.33;16.73;;;;;;;;;;5116896;28;20481;-68
2023/10/27 02:16:10;;;;;;;53.30;16.40;;;;;;;;;;5109996;28;21112;-68
2023/10/27 02:18:36;;;;;;;44.67;19.70;;;;;;;;;;5118259;28;20469;-69
2023/10/27 02:21:03;;;;;;;42.67;15.93;;;;;;;;;;5121050;28;20882;-68
2023/10/27 02:23:29;;;;;;;46.07;17.07;;;;;;;;;;5109133;28;20476;-68
2023/10/27 02:25:56;;;;;;;43.53;18.10;;;;;;;;;;5106536;28;20518;-68
2023/10/27 02:28:22;;;;;;;67.13;19.70;;;;;;;;;;5131493;28;20469;-69
2023/10/27 02:30:48;;;;;;;45.57;16.23;;;;;;;;;;5115452;28;20551;-68
2023/10/27 02:33:16;;;;;;;45.37;18.87;;;;;;;;;;5124316;28;20491;-69
2023/10/27 02:35:43;;;;;;;47.40;17.50;;;;;;;;;;5116671;28;20518;-69
2023/10/27 02:38:09;;;;;;;55.30;19.00;;;;;;;;;;5118083;28;20447;-69
2023/10/27 02:40:36;;;;;;;58.10;17.53;;;;;;;;;;5119434;28;21286;-69
2023/10/27 02:43:03;;;;;;;51.20;16.10;;;;;;;;;;5106886;28;20490;-68
2023/10/27 02:45:29;;;;;;;44.33;16.07;;;;;;;;;;5121966;27;20466;-69
2023/10/27 02:47:56;;;;;;;38.73;15.87;;;;;;;;;;5121439;27;20693;-68
2023/10/27 02:50:23;;;;;;;35.80;15.07;;;;;;;;;;5125601;27;20533;-68
2023/10/27 02:52:50;;;;;;;50.17;18.00;;;;;;;;;;5125911;27;20484;-69
2023/10/27 02:55:16;;;;;;;39.07;17.10;;;;;;;;;;5115173;27;21092;-68
2023/10/27 02:57:43;;;;;;;32.83;15.60;;;;;;;;;;5112243;27;20458;-69
2023/10/27 03:00:10;;;;;;;68.97;26.87;;;;;;;;;;5114778;27;20548;-68
2023/10/27 03:02:36;;;;;;;44.67;17.70;;;;;;;;;;5114054;28;20479;-69
2023/10/27 03:05:02;;;;;;;42.40;15.97;;;;;;;;;;5121531;27;20518;-68
2023/10/27 03:07:30;;;;;;;47.17;14.70;;;;;;;;;;5122156;27;20478;-69
2023/10/27 03:09:57;;;;;;;43.87;17.80;;;;;;;;;;5114195;27;20492;-69
2023/10/27 03:12:23;;;;;;;73.97;17.40;;;;;;;;;;5121537;27;20482;-68
2023/10/27 03:14:49;;;;;;;37.10;16.83;;;;;;;;;;5118416;27;21212;-68
2023/10/27 03:17:16;;;;;;;42.53;16.70;;;;;;;;;;5116877;27;20473;-68
2023/10/27 03:19:42;;;;;;;43.97;16.47;;;;;;;;;;5127606;27;20478;-68
2023/10/27 03:22:09;;;;;;;47.50;16.30;;;;;;;;;;5122704;27;20943;-68
2023/10/27 03:24:36;;;;;;;41.53;16.80;;;;;;;;;;5115556;27;20528;-68
2023/10/27 03:27:03;;;;;;;49.93;17.50;;;;;;;;;;5121628;27;20458;-68
2023/10/27 03:29:29;;;;;;;53.40;24.90;;;;;;;;;;5117672;27;20454;-68
2023/10/27 03:31:56;;;;;;;45.10;16.90;;;;;;;;;;5116058;27;20457;-68
2023/10/27 03:34:22;;;;;;;60.90;17.10;;;;;;;;;;5113076;27;20454;-68
2023/10/27 03:36:49;;;;;;;42.40;15.73;;;;;;;;;;5126502;27;20476;-68
2023/10/27 03:39:15;;;;;;;64.43;17.80;;;;;;;;;;5126235;27;20485;-68
2023/10/27 03:41:43;;;;;;;69.07;18.27;;;;;;;;;;5114775;27;20504;-68
2023/10/27 03:44:10;;;;;;;60.50;20.73;;;;;;;;;;5111495;27;20954;-68
2023/10/27 03:46:37;;;;;;;69.27;20.30;;;;;;;;;;5119944;27;20518;-68
2023/10/27 03:49:03;;;;;;;57.60;17.53;;;;;;;;;;5118172;27;20453;-68
2023/10/27 03:51:31;;;;;;;53.90;18.90;;;;;;;;;;5119412;27;20443;-68
2023/10/27 03:53:57;;;;;;;47.53;17.97;;;;;;;;;;5116298;27;20441;-68
2023/10/27 03:56:24;;;;;;;49.70;17.93;;;;;;;;;;5116666;27;20493;-68
2023/10/27 03:58:52;;;;;;;51.97;19.90;;;;;;;;;;5112647;27;20494;-68
2023/10/27 04:01:18;;;;;;;57.37;18.90;;;;;;;;;;5118845;27;20548;-68
2023/10/27 04:03:45;;;;;;;49.97;18.93;;;;;;;;;;5113939;27;20477;-68
2023/10/27 04:06:11;;;;;;;57.30;19.80;;;;;;;;;;5116011;27;21288;-68
2023/10/27 04:08:38;;;;;;;54.90;18.87;;;;;;;;;;5114236;27;20833;-68
2023/10/27 04:11:05;;;;;;;64.90;20.20;;;;;;;;;;5118136;27;20457;-68
2023/10/27 04:13:31;;;;;;;54.40;19.10;;;;;;;;;;5121325;27;20528;-68
2023/10/27 04:15:59;;;;;;;58.97;20.27;;;;;;;;;;5114698;27;20465;-69
2023/10/27 04:18:25;;;;;;;56.77;19.77;;;;;;;;;;5115106;27;20458;-68
2023/10/27 04:20:52;;;;;;;61.33;20.00;;;;;;;;;;5117011;27;20496;-68
2023/10/27 04:23:18;;;;;;;73.87;21.43;;;;;;;;;;5114313;28;20473;-68
2023/10/27 04:25:44;;;;;;;61.93;22.47;;;;;;;;;;5120382;27;20509;-68
2023/10/27 04:28:11;;;;;;;68.20;22.07;;;;;;;;;;5115278;27;20454;-68
2023/10/27 04:30:37;;;;;;;67.87;21.20;;;;;;;;;;5120786;27;20462;-68
2023/10/27 04:33:05;;;;;;;64.67;19.77;;;;;;;;;;5124390;27;20450;-68
2023/10/27 04:35:32;;;;;;;69.83;21.00;;;;;;;;;;5128701;27;20528;-68
2023/10/27 04:37:59;;;;;;;62.30;21.30;;;;;;;;;;5130040;27;20536;-68
2023/10/27 04:40:28;;;;;;;58.60;19.73;;;;;;;;;;5118062;27;20481;-68
2023/10/27 04:42:56;;;;;;;64.93;22.60;;;;;;;;;;5118215;27;21193;-68
2023/10/27 04:45:22;;;;;;;59.57;18.23;;;;;;;;;;5118432;28;20454;-68
2023/10/27 04:47:49;;;;;;;50.87;18.77;;;;;;;;;;5122763;27;20485;-68
2023/10/27 04:50:17;;;;;;;49.80;19.00;;;;;;;;;;5119641;27;20886;-68
2023/10/27 04:52:44;;;;;;;53.37;20.30;;;;;;;;;;5117981;27;20453;-68
2023/10/27 04:55:11;;;;;;;55.57;16.63;;;;;;;;;;5117613;28;20485;-68
2023/10/27 04:57:37;;;;;;;58.97;19.30;;;;;;;;;;5117701;27;20849;-68
2023/10/27 05:00:05;;;;;;;49.43;16.90;;;;;;;;;;5133340;27;21213;-68
2023/10/27 05:02:31;;;;;;;60.00;16.90;;;;;;;;;;5114414;27;20453;-68
2023/10/27 05:04:58;;;;;;;45.13;18.37;;;;;;;;;;5116362;27;20490;-68
2023/10/27 05:07:25;;;;;;;50.70;17.73;;;;;;;;;;5122226;27;20496;-68
2023/10/27 05:09:52;;;;;;;65.90;17.97;;;;;;;;;;5117851;27;20526;-64
2023/10/27 05:12:18;;;;;;;56.13;18.50;;;;;;;;;;5126331;27;20481;-62
2023/10/27 05:14:45;;;;;;;61.87;18.60;;;;;;;;;;5118051;27;20500;-67
2023/10/27 05:17:13;;;;;;;74.73;20.30;;;;;;;;;;5123725;27;21011;-67
2023/10/27 05:19:39;;;;;;;59.53;19.90;;;;;;;;;;5126760;27;20453;-67
2023/10/27 05:22:05;;;;;;;62.40;21.20;;;;;;;;;;5113712;27;20538;-67
2023/10/27 05:24:33;;;;;;;60.13;21.60;;;;;;;;;;5111497;27;21306;-68
2023/10/27 05:27:00;;;;;;;60.57;17.47;;;;;;;;;;5100434;27;20451;-68
2023/10/27 05:29:26;;;;;;;78.40;18.57;;;;;;;;;;5118315;27;20454;-67
2023/10/27 05:31:53;;;;;;;69.40;20.47;;;;;;;;;;5112226;27;20537;-67
2023/10/27 05:34:19;;;;;;;59.73;20.97;;;;;;;;;;5128983;27;20454;-67
2023/10/27 05:36:46;;;;;;;53.50;19.60;;;;;;;;;;5126356;27;21002;-68
2023/10/27 05:39:16;;;;;;;77.90;20.80;;;;;;;;;;5110423;28;20515;-68
2023/10/27 05:41:44;;;;;;;60.37;19.87;;;;;;;;;;5112728;27;20470;-68
2023/10/27 05:44:16;;;;;;;57.83;20.33;;;;;;;;;;5109731;27;20471;-67
2023/10/27 05:46:43;;;;;;;72.07;20.60;;;;;;;;;;5128032;27;20465;-69
2023/10/27 05:49:09;;;;;;;66.27;19.90;;;;;;;;;;5108569;27;20495;-69
2023/10/27 05:51:36;;;;;;;62.73;18.23;;;;;;;;;;5111555;28;20470;-69
2023/10/27 05:54:02;;;;;;;66.03;20.97;;;;;;;;;;5108935;27;20507;-67
2023/10/27 05:56:29;;;;;;;61.30;19.63;;;;;;;;;;5119166;27;20513;-70
2023/10/27 05:58:57;;;;;;;67.57;19.83;;;;;;;;;;5109148;27;20498;-73
2023/10/27 06:01:23;;;;;;;62.87;20.00;;;;;;;;;;5114648;28;20577;-70
2023/10/27 06:03:50;;;;;;;89.57;21.67;;;;;;;;;;5117397;27;20515;-70
2023/10/27 06:06:16;;;;;;;51.30;17.97;;;;;;;;;;5120247;27;20447;-70
2023/10/27 06:08:44;;;;;;;53.70;17.60;;;;;;;;;;5120541;27;20511;-70
2023/10/27 06:11:10;;;;;;;63.37;19.50;;;;;;;;;;5120850;27;20437;-70
2023/10/27 06:13:37;;;;;;;55.43;17.87;;;;;;;;;;5123469;27;21025;-70
2023/10/27 06:16:15;;;;;;;63.03;20.20;;;;;;;;;;5126232;28;20465;-69
2023/10/27 06:18:41;;;;;;;51.33;17.30;;;;;;;;;;5123168;28;21084;-67
2023/10/27 06:21:08;;;;;;;52.57;21.63;;;;;;;;;;5104474;27;21054;-67
2023/10/27 06:23:34;;;;;;;55.83;19.37;;;;;;;;;;5119380;28;21243;-68
2023/10/27 06:26:02;;;;;;;57.40;19.03;;;;;;;;;;5115257;27;20510;-68
2023/10/27 06:28:28;;;;;;;50.20;18.70;;;;;;;;;;5123272;27;20447;-68
2023/10/27 06:30:54;;;;;;;54.90;19.70;;;;;;;;;;5123571;27;20454;-68
2023/10/27 06:33:23;;;;;;;65.80;19.40;;;;;;;;;;5136067;27;20953;-68
2023/10/27 06:35:49;;;;;;;59.20;19.87;;;;;;;;;;5125699;27;20484;-69
2023/10/27 06:38:16;;;;;;;60.50;20.50;;;;;;;;;;5109568;27;20451;-69
2023/10/27 06:40:42;;;;;;;82.37;23.10;;;;;;;;;;5114438;27;20482;-69
2023/10/27 06:43:09;;;;;;;72.37;21.97;;;;;;;;;;5117578;27;20489;-69
2023/10/27 06:45:35;;;;;;;70.60;22.47;;;;;;;;;;5126947;27;20461;-68
2023/10/27 06:48:01;;;;;;;75.67;23.70;;;;;;;;;;5115844;27;20480;-70
2023/10/27 06:50:29;;;;;;;62.97;21.13;;;;;;;;;;5108585;27;20474;-70
2023/10/27 06:52:56;;;;;;;65.57;22.77;;;;;;;;;;5122146;27;20442;-70
2023/10/27 06:55:22;;;;;;;64.17;20.77;;;;;;;;;;5129014;27;20454;-70
2023/10/27 06:57:49;;;;;;;66.23;21.30;;;;;;;;;;5123609;27;20616;-70
2023/10/27 07:00:16;;;;;;;64.47;21.13;;;;;;;;;;5130889;27;20453;-70
2023/10/27 07:02:43;;;;;;;63.20;22.17;;;;;;;;;;5113972;27;20493;-70
2023/10/27 07:05:13;;;;;;;68.70;22.53;;;;;;;;;;5118376;27;20601;-69
2023/10/27 07:07:41;;;;;;;63.67;20.97;;;;;;;;;;5134264;27;20460;-70
2023/10/27 07:10:08;;;;;;;76.67;22.57;;;;;;;;;;5126463;27;20438;-69
2023/10/27 07:12:34;;;;;;;70.47;21.90;;;;;;;;;;5119461;28;20457;-68
2023/10/27 07:15:01;;;;;;;72.87;21.30;;;;;;;;;;5121675;27;20442;-73
2023/10/27 07:17:28;;;;;;;84.80;23.83;;;;;;;;;;5137750;27;20568;-71
2023/10/27 07:19:54;;;;;;;66.63;21.53;;;;;;;;;;5119197;27;20453;-71
2023/10/27 07:22:20;;;;;;;66.30;24.23;;;;;;;;;;5114141;27;20486;-70
2023/10/27 07:24:48;;;;;;;80.30;24.20;;;;;;;;;;5116748;27;20572;-70
2023/10/27 07:27:15;;;;;;;69.23;22.43;;;;;;;;;;5130239;27;20448;-71
2023/10/27 07:29:41;;;;;;;71.33;23.67;;;;;;;;;;5134634;27;20487;-70
2023/10/27 07:32:08;;;;;;;63.50;21.07;;;;;;;;;;5131457;27;20445;-70
2023/10/27 07:34:34;;;;;;;68.50;23.37;;;;;;;;;;5115532;27;20443;-69
2023/10/27 07:37:04;;;;;;;84.97;24.67;;;;;;;;;;5119939;27;20467;-69
2023/10/27 07:39:30;;;;;;;99.87;26.20;;;;;;;;;;5123207;27;20454;-72
2023/10/27 07:41:58;;;;;;;73.07;21.87;;;;;;;;;;5126039;27;20579;-71
2023/10/27 07:44:24;;;;;;;71.60;24.70;;;;;;;;;;5125997;27;20442;-71
2023/10/27 07:46:52;;;;;;;75.23;22.73;;;;;;;;;;5113865;27;20457;-74
2023/10/27 07:49:19;;;;;;;75.97;22.30;;;;;;;;;;5125734;27;20484;-69
2023/10/27 07:51:45;;;;;;;78.23;23.13;;;;;;;;;;5138001;27;20445;-70
2023/10/27 07:54:11;;;;;;;79.23;24.33;;;;;;;;;;5124217;27;20514;-69
2023/10/27 07:56:38;;;;;;;85.87;24.90;;;;;;;;;;5134043;27;20480;-69
2023/10/27 07:59:06;;;;;;;70.93;24.47;;;;;;;;;;5127948;27;20465;-70
2023/10/27 08:01:32;;;;;;;73.57;23.47;;;;;;;;;;5119160;27;20478;-70
2023/10/27 08:04:02;;;;;;;77.40;23.90;;;;;;;;;;5128402;27;20446;-70
2023/10/27 08:06:29;;;;;;;60.87;21.83;;;;;;;;;;5129858;27;20502;-69
2023/10/27 08:08:55;;;;;;;81.23;24.40;;;;;;;;;;5122540;27;20986;-69
2023/10/27 08:11:21;;;;;;;75.67;26.20;;;;;;;;;;5108354;27;20442;-71
2023/10/27 08:13:48;;;;;;;67.23;24.73;;;;;;;;;;5131919;27;20445;-71
2023/10/27 08:16:16;;;;;;;80.80;24.70;;;;;;;;;;5121611;27;20473;-71
2023/10/27 08:18:43;;;;;;;88.17;24.47;;;;;;;;;;5112378;27;20520;-69
2023/10/27 08:21:09;;;;;;;72.10;24.27;;;;;;;;;;5140667;27;20450;-74
2023/10/27 08:23:36;;;;;;;71.83;23.50;;;;;;;;;;5130641;27;20817;-74
2023/10/27 08:26:02;;;;;;;67.70;21.90;;;;;;;;;;5130946;27;20482;-72
2023/10/27 08:28:29;;;;;;;78.27;22.77;;;;;;;;;;5122731;27;20437;-73
2023/10/27 08:30:56;;;;;;;79.80;23.20;;;;;;;;;;5110438;28;20508;-71
2023/10/27 08:33:24;;;;;;;66.47;22.97;;;;;;;;;;5117535;27;20467;-71
2023/10/27 08:35:51;;;;;;;70.17;23.40;;;;;;;;;;5114812;28;20454;-74
2023/10/27 08:38:17;;;;;;;62.30;21.90;;;;;;;;;;5118411;28;20823;-73
2023/10/27 08:40:44;;;;;;;70.70;21.60;;;;;;;;;;5121740;27;20458;-72
2023/10/27 08:43:10;;;;;;;76.30;22.80;;;;;;;;;;5119040;27;20482;-72
2023/10/27 08:45:37;;;;;;;68.90;23.63;;;;;;;;;;5121073;27;20447;-72
2023/10/27 08:48:04;;;;;;;51.73;20.77;;;;;;;;;;5119164;27;20481;-71
2023/10/27 08:50:32;;;;;;;63.33;23.90;;;;;;;;;;5113022;27;20465;-72
2023/10/27 08:52:59;;;;;;;57.43;21.20;;;;;;;;;;5124066;27;20453;-73
2023/10/27 08:55:26;;;;;;;66.23;22.43;;;;;;;;;;5118715;28;20786;-70
2023/10/27 08:57:54;;;;;;;56.53;21.67;;;;;;;;;;5124415;27;21069;-72
2023/10/27 09:00:24;;;;;;;58.00;21.60;;;;;;;;;;5106950;28;20457;-72
2023/10/27 09:02:50;;;;;;;60.30;21.53;;;;;;;;;;5113377;27;20492;-72
2023/10/27 09:05:17;;;;;;;56.90;21.03;;;;;;;;;;5126344;27;20453;-72
2023/10/27 09:07:46;;;;;;;62.50;22.40;;;;;;;;;;5133233;27;20467;-73
2023/10/27 09:10:13;;;;;;;54.07;21.20;;;;;;;;;;5118246;28;20446;-70
2023/10/27 09:12:41;;;;;;;67.00;20.70;;;;;;;;;;5123637;27;20448;-74
2023/10/27 09:15:08;;;;;;;58.33;20.60;;;;;;;;;;5119441;27;20519;-73
2023/10/27 09:17:49;;;;;;;66.27;23.37;;;;;;;;;;5126480;27;20730;-71
2023/10/27 09:20:16;;;;;;;60.33;21.07;;;;;;;;;;5115361;27;20458;-72
2023/10/27 09:22:55;;;;;;;64.53;21.97;;;;;;;;;;5112704;27;20474;-73
2023/10/27 09:25:22;;;;;;;53.23;22.20;;;;;;;;;;5114518;27;20481;-73
2023/10/27 09:27:49;;;;;;;52.83;22.53;;;;;;;;;;5108762;28;20442;-72
2023/10/27 09:30:25;;;;;;;50.60;22.93;;;;;;;;;;5125656;27;20484;-74
2023/10/27 09:32:52;;;;;;;57.40;22.33;;;;;;;;;;5117613;27;20778;-73
2023/10/27 09:35:18;;;;;;;67.70;22.47;;;;;;;;;;5116482;27;20544;-71
2023/10/27 09:37:48;;;;;;;51.70;20.50;;;;;;;;;;5117664;28;20468;-73
2023/10/27 09:40:15;;;;;;;49.50;20.50;;;;;;;;;;5122920;27;20443;-70
2023/10/27 09:42:43;;;;;;;51.03;22.20;;;;;;;;;;5113320;27;20477;-75
2023/10/27 09:45:11;;;;;;;56.20;21.20;;;;;;;;;;5121064;27;20458;-70
2023/10/27 09:47:43;;;;;;;43.97;19.50;;;;;;;;;;5105448;28;21146;-74
2023/10/27 09:50:13;;;;;;;52.10;21.40;;;;;;;;;;5109632;28;20463;-75
2023/10/27 09:52:40;;;;;;;52.20;20.70;;;;;;;;;;5124717;27;20470;-74
2023/10/27 09:55:08;;;;;;;52.73;21.93;;;;;;;;;;5120437;27;20454;-76
2023/10/27 09:57:35;;;;;;;44.53;19.10;;;;;;;;;;5117945;27;20474;-75
2023/10/27 10:00:07;;;;;;;52.13;22.13;;;;;;;;;;5118703;27;20893;-69
2023/10/27 10:02:35;;;;;;;39.13;19.97;;;;;;;;;;5114222;27;20592;-70
2023/10/27 10:05:02;;;;;;;43.87;19.73;;;;;;;;;;5121789;28;20818;-75
2023/10/27 10:07:29;;;;;;;43.93;18.90;;;;;;;;;;5122929;27;20579;-73
2023/10/27 10:09:56;;;;;;;48.10;19.83;;;;;;;;;;5124088;27;20449;-71
2023/10/27 10:12:24;;;;;;;45.80;19.47;;;;;;;;;;5121125;28;21048;-70
2023/10/27 10:14:51;;;;;;;49.20;18.67;;;;;;;;;;5115602;27;20443;-71
2023/10/27 10:17:38;;;;;;;52.33;17.43;;;;;;;;;;5112086;28;20466;-71
2023/10/27 10:20:05;;;;;;;43.30;19.00;;;;;;;;;;5118419;28;20446;-73
2023/10/27 10:22:51;;;;;;;35.13;17.30;;;;;;;;;;5121304;28;20496;-71
2023/10/27 10:25:27;;;;;;;39.63;19.23;;;;;;;;;;5113944;28;20485;-70
2023/10/27 10:28:12;;;;;;;40.67;17.40;;;;;;;;;;5126599;28;21024;-72
2023/10/27 10:30:41;;;;;;;45.27;20.17;;;;;;;;;;5124080;28;20521;-71
2023/10/27 10:33:25;;;;;;;42.53;19.23;;;;;;;;;;5127657;28;20942;-68
2023/10/27 10:35:52;;;;;;;36.77;18.20;;;;;;;;;;5120330;28;20453;-71
2023/10/27 10:38:37;;;;;;;37.27;18.37;;;;;;;;;;5123927;28;20448;-71
2023/10/27 10:41:04;;;;;;;55.00;19.70;;;;;;;;;;5123576;28;20457;-70
2023/10/27 10:43:33;;;;;;;39.03;19.10;;;;;;;;;;5116338;28;20474;-69
2023/10/27 10:46:03;;;;;;;37.67;19.97;;;;;;;;;;5110860;28;20457;-71
2023/10/27 10:48:30;;;;;;;41.30;18.70;;;;;;;;;;5123028;28;20461;-70
2023/10/27 10:50:59;;;;;;;42.80;18.87;;;;;;;;;;5127540;28;20453;-67
2023/10/27 10:53:26;;;;;;;35.57;19.00;;;;;;;;;;5118468;28;20446;-71
2023/10/27 10:55:56;;;;;;;40.67;18.47;;;;;;;;;;5108586;28;20462;-69
2023/10/27 10:58:23;;;;;;;36.97;18.10;;;;;;;;;;5118455;28;20430;-71
2023/10/27 11:00:50;;;;;;;35.90;17.00;;;;;;;;;;5119378;28;20449;-71
2023/10/27 11:03:18;;;;;;;37.83;17.13;;;;;;;;;;5125520;28;20490;-71
2023/10/27 11:05:45;;;;;;;31.50;17.43;;;;;;;;;;5109382;28;20482;-72
2023/10/27 11:08:11;;;;;;;53.93;32.70;;;;;;;;;;5126984;27;20489;-69
2023/10/27 11:10:38;;;;;;;32.90;16.97;;;;;;;;;;5121167;27;20457;-71
2023/10/27 11:13:05;;;;;;;42.90;22.30;;;;;;;;;;5120580;28;20469;-71
2023/10/27 11:15:41;;;;;;;35.77;18.17;;;;;;;;;;5120275;28;20978;-73
2023/10/27 11:18:08;;;;;;;36.63;16.60;;;;;;;;;;5126077;27;20449;-72
2023/10/27 11:20:36;;;;;;;30.60;15.30;;;;;;;;;;5132997;27;20451;-68
2023/10/27 11:23:09;;;;;;;40.63;16.27;;;;;;;;;;5112771;27;20890;-71
2023/10/27 11:25:35;;;;;;;35.80;17.87;;;;;;;;;;5116804;28;20474;-69
2023/10/27 11:28:20;;;;;;;37.87;16.30;;;;;;;;;;5126243;27;20938;-70
2023/10/27 11:31:02;;;;;;;31.77;16.70;;;;;;;;;;5128302;27;20449;-71
2023/10/27 11:33:29;;;;;;;36.67;16.37;;;;;;;;;;5115404;27;20487;-70
2023/10/27 11:35:57;;;;;;;27.60;14.83;;;;;;;;;;5123185;27;20459;-69
2023/10/27 11:38:30;;;;;;;29.93;15.97;;;;;;;;;;5128592;27;20445;-68
2023/10/27 11:41:09;;;;;;;35.63;18.20;;;;;;;;;;5134016;27;21068;-70
2023/10/27 11:43:35;;;;;;;27.27;14.97;;;;;;;;;;5127436;27;20541;-71
2023/10/27 11:46:08;;;;;;;37.70;24.13;;;;;;;;;;5121414;27;20451;-70
2023/10/27 11:48:35;;;;;;;33.73;18.47;;;;;;;;;;5133375;27;20445;-74
2023/10/27 11:51:03;;;;;;;29.53;19.10;;;;;;;;;;5128875;27;20478;-69
2023/10/27 11:53:29;;;;;;;28.73;15.50;;;;;;;;;;5125323;27;20447;-70
2023/10/27 11:55:56;;;;;;;28.50;15.13;;;;;;;;;;5128540;27;20461;-73
2023/10/27 11:58:22;;;;;;;35.63;30.13;;;;;;;;;;5133991;27;20450;-74
2023/10/27 12:00:49;;;;;;;28.43;14.60;;;;;;;;;;5116270;27;20454;-73
2023/10/27 12:03:15;;;;;;;29.73;14.50;;;;;;;;;;5119068;27;20517;-73
2023/10/27 12:05:42;;;;;;;28.30;14.60;;;;;;;;;;5127442;27;20481;-74
2023/10/27 12:08:10;;;;;;;21.63;13.27;;;;;;;;;;5113952;27;20443;-70
2023/10/27 12:10:36;;;;;;;28.93;17.40;;;;;;;;;;5124454;27;20453;-68
2023/10/27 12:13:06;;;;;;;24.30;13.70;;;;;;;;;;5129995;27;20475;-70
2023/10/27 12:15:33;;;;;;;33.33;13.53;;;;;;;;;;5113593;28;20454;-71
2023/10/27 12:17:59;;;;;;;22.50;12.83;;;;;;;;;;5109681;27;20854;-69
2023/10/27 12:20:27;;;;;;;12.17;5.77;;;;;;;;;;5111817;28;20473;-66
2023/10/27 12:22:54;;;;;;;7.00;4.90;;;;;;;;;;5122703;27;20495;-69
2023/10/27 12:25:22;;;;;;;9.33;6.10;;;;;;;;;;5118542;27;20483;-70
2023/10/27 12:27:48;;;;;;;10.70;4.70;;;;;;;;;;5122998;27;21268;-69
2023/10/27 12:30:16;;;;;;;7.27;4.10;;;;;;;;;;5117056;27;20488;-70
2023/10/27 12:32:42;;;;;;;6.10;4.47;;;;;;;;;;5114467;27;20477;-68
2023/10/27 12:35:11;;;;;;;6.97;4.13;;;;;;;;;;5113875;28;20457;-71
2023/10/27 12:37:37;;;;;;;4.77;3.70;;;;;;;;;;5124657;27;20480;-71
2023/10/27 12:40:06;;;;;;;7.70;3.80;;;;;;;;;;5112516;27;20483;-68
2023/10/27 12:42:33;;;;;;;3.47;2.70;;;;;;;;;;5128961;27;20465;-69
2023/10/27 12:45:02;;;;;;;6.40;3.43;;;;;;;;;;5122205;27;20450;-68
2023/10/27 12:47:29;;;;;;;3.50;3.10;;;;;;;;;;5117655;27;20442;-69
2023/10/27 12:49:55;;;;;;;3.53;3.10;;;;;;;;;;5124596;27;20485;-67
2023/10/27 12:52:22;;;;;;;6.20;3.40;;;;;;;;;;5127626;27;20443;-68
2023/10/27 12:54:49;;;;;;;5.00;3.40;;;;;;;;;;5123304;27;20484;-69
2023/10/27 12:57:15;;;;;;;6.13;3.93;;;;;;;;;;5117002;27;20513;-68
2023/10/27 12:59:45;;;;;;;6.20;3.40;;;;;;;;;;5121244;27;20498;-69
2023/10/27 13:02:12;;;;;;;4.10;3.43;;;;;;;;;;5117173;27;20516;-70
2023/10/27 13:04:38;;;;;;;5.33;3.63;;;;;;;;;;5124902;27;21074;-71
2023/10/27 13:07:05;;;;;;;7.33;3.50;;;;;;;;;;5124456;27;20461;-70
2023/10/27 13:09:31;;;;;;;6.13;3.80;;;;;;;;;;5119901;27;20522;-71
2023/10/27 13:11:58;;;;;;;3.77;3.10;;;;;;;;;;5117961;28;20455;-70
2023/10/27 13:14:24;;;;;;;4.70;2.83;;;;;;;;;;5121798;27;20467;-70
2023/10/27 13:16:52;;;;;;;6.80;4.20;;;;;;;;;;5119337;27;20483;-69
2023/10/27 13:19:22;;;;;;;6.03;3.87;;;;;;;;;;5129958;27;20449;-71
2023/10/27 13:21:48;;;;;;;4.67;3.00;;;;;;;;;;5105226;27;20465;-71
2023/10/27 13:24:15;;;;;;;5.47;4.97;;;;;;;;;;5111020;28;20497;-70
2023/10/27 13:26:41;;;;;;;4.27;2.70;;;;;;;;;;5117555;28;20683;-72
2023/10/27 13:29:08;;;;;;;5.03;3.10;;;;;;;;;;5118786;27;20451;-69
2023/10/27 13:31:35;;;;;;;5.03;3.50;;;;;;;;;;5109161;28;20450;-70
2023/10/27 13:34:04;;;;;;;4.90;2.80;;;;;;;;;;5110872;28;20483;-69
2023/10/27 13:36:30;;;;;;;5.20;3.40;;;;;;;;;;5114292;28;20493;-68
2023/10/27 13:38:57;;;;;;;4.00;3.27;;;;;;;;;;5109590;28;20507;-70
2023/10/27 13:41:24;;;;;;;4.03;2.87;;;;;;;;;;5120460;27;20489;-70
2023/10/27 13:43:50;;;;;;;5.50;2.73;;;;;;;;;;5114236;27;20478;-73
2023/10/27 13:46:19;;;;;;;5.17;2.83;;;;;;;;;;5109523;27;20449;-70
2023/10/27 13:48:46;;;;;;;2.33;2.13;;;;;;;;;;5117695;27;20458;-70
2023/10/27 13:51:15;;;;;;;5.77;4.00;;;;;;;;;;5121245;27;20488;-68
2023/10/27 13:53:44;;;;;;;4.77;3.80;;;;;;;;;;5114751;27;20446;-69
2023/10/27 13:56:12;;;;;;;5.70;4.00;;;;;;;;;;5109611;28;20475;-70
2023/10/27 13:58:39;;;;;;;4.67;3.60;;;;;;;;;;5111861;28;20530;-70
2023/10/27 14:01:08;;;;;;;6.33;4.20;;;;;;;;;;5121958;27;20450;-69
2023/10/27 14:03:34;;;;;;;5.63;3.97;;;;;;;;;;5111962;28;20481;-70
2023/10/27 14:06:01;;;;;;;5.33;3.90;;;;;;;;;;5119247;27;20453;-70
2023/10/27 14:08:34;;;;;;;5.83;4.27;;;;;;;;;;5124565;27;20480;-70
2023/10/27 14:11:03;;;;;;;6.60;4.50;;;;;;;;;;5123041;27;20989;-71
2023/10/27 14:13:29;;;;;;;7.57;4.47;;;;;;;;;;5127266;27;20447;-72
2023/10/27 14:15:56;;;;;;;6.17;4.30;;;;;;;;;;5117612;28;20446;-72
2023/10/27 14:18:22;;;;;;;6.67;4.50;;;;;;;;;;5125155;28;20491;-70
2023/10/27 14:20:50;;;;;;;8.27;4.93;;;;;;;;;;5119611;28;20460;-70
2023/10/27 14:23:17;;;;;;;6.57;4.70;;;;;;;;;;5116669;28;20492;-69